Time;durP1;ratioP1;P1;durP2;ratioP2;P2;SDS_P1;SDS_P2;PMS_P1;PMS_P2;Temp;Humidity;BMP_temperature;BMP_pressure;BME280_temperature;BME280_humidity;BME280_pressure;Samples;Min_cycle;Max_cycle;Signal;HPM_P1;HPM_P2
2022/04/27 00:00:39;;;;;;;4.40;3.90;;;;;;;14.37;85.18;97069.94;4879996;29;20227;-84
2022/04/27 00:03:09;;;;;;;5.37;3.47;;;;;;;14.29;83.88;97039.16;4873205;29;20292;-82
2022/04/27 00:05:38;;;;;;;4.97;3.00;;;;;;;14.54;84.01;97073.22;4873436;29;20200;-86
2022/04/27 00:08:05;;;;;;;5.13;3.37;;;;;;;14.43;83.64;97065.19;4874025;29;20191;-90
2022/04/27 00:10:36;;;;;;;4.63;3.53;;;;;;;14.34;83.97;97042.31;4872792;29;20202;-91
2022/04/27 00:13:04;;;;;;;3.53;3.00;;;;;;;14.45;83.72;97067.72;4873726;29;20254;-84
2022/04/27 00:15:34;;;;;;;3.83;2.87;;;;;;;14.21;84.16;97036.16;4872801;29;20204;-87
2022/04/27 00:18:01;;;;;;;6.90;3.30;;;;;;;14.24;83.52;97041.16;4873971;29;20226;-90
2022/04/27 00:20:31;;;;;;;5.20;3.90;;;;;;;14.07;84.06;97046.56;4875190;29;20256;-89
2022/04/27 00:23:00;;;;;;;3.67;3.10;;;;;;;13.78;86.07;97050.88;4875696;29;20195;-92
2022/04/27 00:25:28;;;;;;;3.93;3.33;;;;;;;13.60;86.85;97051.91;4881722;29;20196;-84
2022/04/27 00:27:57;;;;;;;4.67;3.60;;;;;;;13.78;87.46;97069.09;4881537;29;20209;-86
2022/04/27 00:30:25;;;;;;;3.77;3.43;;;;;;;13.85;87.63;97059.13;4881064;29;20198;-93
2022/04/27 00:32:53;;;;;;;3.97;3.63;;;;;;;13.24;87.65;97034.97;4875427;29;20192;-84
2022/04/27 00:35:21;;;;;;;4.90;4.17;;;;;;;13.13;87.95;97024.34;4873553;29;20226;-86
2022/04/27 00:37:50;;;;;;;4.50;4.10;;;;;;;13.32;87.77;97049.22;4874759;29;20234;-87
2022/04/27 00:40:20;;;;;;;6.20;3.97;;;;;;;13.26;87.53;97061.72;4873041;29;20194;-91
2022/04/27 00:42:48;;;;;;;4.50;3.70;;;;;;;13.31;88.31;97052.75;4875621;29;20206;-86
2022/04/27 00:45:22;;;;;;;4.17;3.77;;;;;;;13.52;88.42;97050.66;4877011;29;20667;-83
2022/04/27 00:47:50;;;;;;;4.13;3.40;;;;;;;13.66;86.53;97040.34;4875229;29;20705;-85
2022/04/27 00:50:20;;;;;;;4.30;3.90;;;;;;;13.50;85.97;97018.69;4860457;29;20817;-93
2022/04/27 00:52:49;;;;;;;4.27;3.87;;;;;;;13.83;86.15;97047.97;4890787;29;20203;-88
2022/04/27 00:55:20;;;;;;;4.60;3.97;;;;;;;13.91;85.72;97045.75;4876971;29;20207;-87
2022/04/27 00:57:52;;;;;;;4.47;3.57;;;;;;;13.88;85.57;97045.94;4875600;29;20294;-90
2022/04/27 01:00:20;;;;;;;4.17;3.33;;;;;;;13.90;85.03;97033.69;4875834;29;20202;-89
2022/04/27 01:02:49;;;;;;;3.60;3.30;;;;;;;13.78;85.02;97044.81;4877457;29;20690;-89
2022/04/27 01:05:18;;;;;;;5.00;3.17;;;;;;;13.47;85.28;97006.72;4875222;29;20638;-88
2022/04/27 01:07:46;;;;;;;5.50;3.63;;;;;;;13.50;85.82;97035.16;4877259;29;20661;-89
2022/04/27 01:10:14;;;;;;;3.83;3.50;;;;;;;13.59;85.52;97032.03;4859390;29;20204;-84
2022/04/27 01:12:43;;;;;;;3.43;3.00;;;;;;;13.47;85.83;97039.69;4874375;29;20877;-83
2022/04/27 01:15:33;;;;;;;5.27;2.90;;;;;;;13.31;85.32;97018.94;4874684;29;20192;-82
2022/04/27 01:18:03;;;;;;;5.53;3.37;;;;;;;13.27;85.66;97022.59;4873408;29;20230;-84
2022/04/27 01:20:43;;;;;;;4.17;3.07;;;;;;;13.13;86.51;97011.34;4873943;29;20600;-84
2022/04/27 01:23:14;;;;;;;3.73;3.43;;;;;;;13.03;86.20;97030.00;4873507;29;20195;-82
2022/04/27 01:25:48;;;;;;;5.03;3.40;;;;;;;12.84;86.51;96979.97;4860221;29;20203;-84
2022/04/27 01:28:18;;;;;;;3.77;3.33;;;;;;;13.11;86.26;97026.19;4859310;29;20684;-84
2022/04/27 01:30:46;;;;;;;3.97;3.27;;;;;;;13.00;85.54;97011.16;4843070;29;20582;-83
2022/04/27 01:33:17;;;;;;;4.07;3.60;;;;;;;13.12;85.66;97013.09;4873901;29;20229;-83
2022/04/27 01:35:45;;;;;;;2.90;2.70;;;;;;;13.16;85.89;97030.19;4873250;29;20202;-84
2022/04/27 01:38:14;;;;;;;3.87;3.40;;;;;;;13.23;86.18;97020.28;4876516;29;20231;-83
2022/04/27 01:40:42;;;;;;;3.60;3.20;;;;;;;13.02;85.97;96991.91;4859321;29;20230;-86
2022/04/27 01:43:10;;;;;;;4.10;3.00;;;;;;;13.17;85.63;97020.66;4875908;29;20205;-84
2022/04/27 01:45:39;;;;;;;3.57;2.87;;;;;;;13.11;85.75;97021.00;4877206;29;20290;-84
2022/04/27 01:48:10;;;;;;;5.00;2.80;;;;;;;13.03;86.41;97021.38;4894818;29;20286;-89
2022/04/27 01:50:38;;;;;;;6.77;3.67;;;;;;;13.09;86.17;97023.66;4884319;29;20652;-85
2022/04/27 01:55:52;;;;;;;4.10;3.23;;;;;;;13.06;85.91;97003.84;4860977;29;20215;-84
2022/04/27 01:58:22;;;;;;;3.67;3.37;;;;;;;13.03;85.87;97014.41;4887078;29;20243;-86
2022/04/27 02:00:52;;;;;;;3.40;3.10;;;;;;;12.98;85.46;97013.00;4878701;29;20202;-84
2022/04/27 02:03:22;;;;;;;2.90;2.70;;;;;;;12.84;86.28;97003.34;4858912;29;20238;-84
2022/04/27 02:05:52;;;;;;;2.70;2.40;;;;;;;12.61;85.43;96997.75;4860127;29;20212;-84
2022/04/27 02:08:22;;;;;;;3.17;2.97;;;;;;;12.63;86.47;96991.53;4866276;29;20201;-86
2022/04/27 02:10:51;;;;;;;5.50;3.43;;;;;;;12.63;85.83;97020.09;4893363;29;20200;-84
2022/04/27 02:13:18;;;;;;;4.10;3.50;;;;;;;12.35;87.09;97024.25;4877238;29;20269;-86
2022/04/27 02:15:45;;;;;;;4.63;4.10;;;;;;;12.10;88.21;97016.94;4873395;29;20199;-86
2022/04/27 02:18:27;;;;;;;4.30;3.60;;;;;;;11.82;88.98;96975.16;4888859;29;20226;-85
2022/04/27 02:20:56;;;;;;;4.73;3.30;;;;;;;12.08;87.96;97010.97;4877395;29;20287;-87
2022/04/27 02:23:23;;;;;;;4.27;3.57;;;;;;;11.69;87.84;96950.75;4879872;29;20215;-83
2022/04/27 02:25:51;;;;;;;4.70;3.80;;;;;;;11.68;88.10;96970.69;4881570;29;20197;-84
2022/04/27 02:28:20;;;;;;;4.07;3.57;;;;;;;11.40;88.98;96953.06;4874960;29;20192;-90
2022/04/27 02:30:47;;;;;;;3.90;3.50;;;;;;;11.88;89.55;97008.56;4858023;29;20209;-85
2022/04/27 02:33:15;;;;;;;5.77;4.23;;;;;;;11.88;90.01;97017.22;4874392;29;20279;-84
2022/04/27 02:35:42;;;;;;;6.10;3.93;;;;;;;11.40;89.35;96936.66;4873013;29;20869;-90
2022/04/27 02:38:12;;;;;;;4.90;3.77;;;;;;;11.66;90.33;96976.84;4874613;29;20234;-87
2022/04/27 02:40:39;;;;;;;4.37;3.70;;;;;;;12.14;89.33;97006.31;4873190;29;20214;-85
2022/04/27 02:43:07;;;;;;;4.63;3.87;;;;;;;11.91;87.73;96956.53;4877278;29;20192;-87
2022/04/27 02:45:34;;;;;;;5.33;4.07;;;;;;;12.13;87.59;96998.59;4862310;29;20649;-87
2022/04/27 02:48:02;;;;;;;4.93;4.27;;;;;;;12.30;87.45;96995.97;4902966;29;20244;-88
2022/04/27 02:53:15;;;;;;;4.47;3.67;;;;;;;12.27;85.93;96985.72;4879377;29;20201;-90
2022/04/27 02:55:42;;;;;;;5.03;4.17;;;;;;;12.15;86.26;96976.00;4889229;29;20228;-89
2022/04/27 02:58:11;;;;;;;4.30;3.90;;;;;;;12.28;86.50;97009.00;4874792;29;20228;-87
2022/04/27 03:00:39;;;;;;;6.97;4.07;;;;;;;12.00;85.87;96987.19;4889302;29;20206;-84
2022/04/27 03:03:08;;;;;;;5.47;4.10;;;;;;;11.91;87.34;96983.31;4889368;29;20239;-84
2022/04/27 03:05:37;;;;;;;8.03;4.40;;;;;;;12.06;86.61;96997.25;4874879;29;20586;-83
2022/04/27 03:08:06;;;;;;;5.93;4.07;;;;;;;12.12;86.74;97013.34;4856455;29;20577;-84
2022/04/27 03:10:42;;;;;;;4.80;4.03;;;;;;;12.20;86.40;97010.31;4871864;29;20675;-84
2022/04/27 03:13:14;;;;;;;4.93;3.63;;;;;;;12.04;85.71;96989.53;4859374;29;20193;-93
2022/04/27 03:15:45;;;;;;;6.30;3.90;;;;;;;12.09;85.62;96995.34;4874392;29;20197;-84
2022/04/27 03:18:17;;;;;;;6.63;3.90;;;;;;;12.19;84.83;96996.53;4897344;29;20257;-87
2022/04/27 03:20:44;;;;;;;5.77;3.33;;;;;;;12.31;85.33;97023.59;4898266;29;20211;-83
2022/04/27 03:23:13;;;;;;;3.87;3.50;;;;;;;12.07;84.87;96988.56;4883357;29;20241;-86
2022/04/27 03:25:42;;;;;;;3.90;3.13;;;;;;;12.11;84.85;97021.22;4897740;29;20205;-87
2022/04/27 03:28:10;;;;;;;3.73;3.20;;;;;;;12.01;85.29;96994.88;4895464;29;20203;-84
2022/04/27 03:30:39;;;;;;;4.67;3.77;;;;;;;12.13;84.55;97011.59;4871326;29;20208;-85
2022/04/27 03:33:22;;;;;;;5.37;4.47;;;;;;;12.21;84.08;97032.78;4866081;29;20739;-92
2022/04/27 03:35:51;;;;;;;10.00;9.00;;;;;;;11.98;84.30;97020.16;4845907;29;20689;-85
2022/04/27 03:38:18;;;;;;;8.87;5.37;;;;;;;11.95;84.84;97041.91;4859536;29;20256;-88
2022/04/27 03:40:47;;;;;;;4.90;4.40;;;;;;;12.03;85.64;97046.72;4879042;29;20252;-84
2022/04/27 03:43:16;;;;;;;5.93;3.90;;;;;;;12.26;84.53;97036.81;4868781;29;20235;-83
2022/04/27 03:45:44;;;;;;;4.07;3.60;;;;;;;11.94;84.89;97008.25;4886018;29;20200;-87
2022/04/27 03:48:12;;;;;;;4.97;4.43;;;;;;;12.26;84.82;97051.59;4870823;29;20219;-86
2022/04/27 03:50:42;;;;;;;5.37;4.60;;;;;;;12.15;84.78;97007.16;4897309;29;20227;-86
2022/04/27 03:53:09;;;;;;;5.30;4.30;;;;;;;12.92;83.46;97052.34;4877119;29;20206;-84
2022/04/27 03:55:39;;;;;;;4.23;3.50;;;;;;;13.32;81.12;97058.78;4876239;29;20265;-89
2022/04/27 03:58:07;;;;;;;5.43;3.70;;;;;;;13.61;80.92;97061.41;4889381;29;20240;-85
2022/04/27 04:00:36;;;;;;;4.40;4.00;;;;;;;13.90;79.92;97059.72;4882228;29;20672;-83
2022/04/27 04:03:25;;;;;;;4.47;3.50;;;;;;;13.77;78.95;97058.75;4876715;29;20265;-83
2022/04/27 04:05:58;;;;;;;3.40;3.10;;;;;;;14.06;78.96;97067.44;4872793;29;21063;-84
2022/04/27 04:08:41;;;;;;;5.00;4.50;;;;;;;14.21;78.03;97063.94;4870020;29;20281;-91
2022/04/27 04:11:14;;;;;;;2.70;2.50;;;;;;;14.62;75.87;97081.41;4895421;29;20256;-83
2022/04/27 04:14:28;;;;;;;4.07;3.30;;;;;;;14.28;76.42;97080.91;4799973;29;20708;-85
2022/04/27 04:17:30;;;;;;;4.40;3.00;;;;;;;13.91;77.76;97070.97;4883819;29;20210;-92
2022/04/27 04:20:21;;;;;;;5.80;3.10;;;;;;;14.10;77.01;97071.56;4884162;29;20239;-94
2022/04/27 04:22:59;;;;;;;4.80;3.40;;;;;;;14.14;77.53;97089.50;4879843;29;20200;-85
2022/04/27 04:28:32;;;;;;;4.53;3.77;;;;;;;14.39;75.25;97071.53;4875577;29;20221;-84
2022/04/27 04:31:04;;;;;;;6.70;6.13;;;;;;;14.69;74.99;97072.25;4875663;29;20278;-84
2022/04/27 04:33:52;;;;;;;4.27;3.40;;;;;;;14.86;74.53;97073.00;4837728;29;20212;-84
2022/04/27 04:36:21;;;;;;;5.07;4.07;;;;;;;15.02;73.92;97073.72;4860380;29;20201;-84
2022/04/27 04:38:48;;;;;;;3.40;3.10;;;;;;;15.40;72.65;97095.59;4874334;29;20228;-84
2022/04/27 04:41:23;;;;;;;3.90;3.13;;;;;;;15.61;72.42;97094.25;4876451;29;20708;-84
2022/04/27 04:43:55;;;;;;;4.03;3.60;;;;;;;15.87;71.12;97096.00;4876507;29;20234;-84
2022/04/27 04:46:24;;;;;;;3.77;3.10;;;;;;;15.93;69.71;97085.16;4875847;29;20192;-84
2022/04/27 04:49:09;;;;;;;4.07;3.17;;;;;;;16.18;70.03;97103.47;4877319;29;20193;-84
2022/04/27 04:51:37;;;;;;;5.27;4.00;;;;;;;16.21;69.37;97100.69;4875987;29;20216;-84
2022/04/27 04:54:27;;;;;;;3.50;2.90;;;;;;;16.08;68.70;97067.63;4876302;29;20200;-84
2022/04/27 04:57:32;;;;;;;6.83;4.40;;;;;;;16.61;68.77;97117.13;4837437;29;20608;-84
2022/04/27 05:00:32;;;;;;;2.87;2.57;;;;;;;16.72;67.87;97113.78;4797369;29;20299;-84
2022/04/27 05:03:19;;;;;;;3.83;2.93;;;;;;;16.63;67.34;97114.41;4870775;29;20316;-83
2022/04/27 05:06:08;;;;;;;5.47;4.10;;;;;;;16.61;68.35;97124.97;4875259;29;20627;-84
2022/04/27 05:09:04;;;;;;;5.67;4.53;;;;;;;16.84;68.88;97124.22;4808311;29;20740;-84
2022/04/27 05:11:55;;;;;;;6.60;4.20;;;;;;;16.40;69.92;97125.56;4854189;29;20266;-84
2022/04/27 05:14:39;;;;;;;7.73;4.57;;;;;;;16.52;70.45;97122.16;4876011;29;20662;-84
2022/04/27 05:17:30;;;;;;;7.83;6.13;;;;;;;16.47;69.34;97096.28;4847841;29;20723;-83
2022/04/27 05:20:32;;;;;;;10.00;6.50;;;;;;;16.15;70.79;97129.84;4829618;29;20229;-83
2022/04/27 05:23:13;;;;;;;10.53;8.70;;;;;;;16.27;70.29;97095.03;4874860;29;20629;-83
2022/04/27 05:25:59;;;;;;;7.77;6.33;;;;;;;16.66;70.27;97127.28;4876211;29;20297;-90
2022/04/27 05:32:10;;;;;;;6.63;5.37;;;;;;;16.78;68.83;97126.44;4864964;29;20704;-87
2022/04/27 05:34:45;;;;;;;6.40;4.90;;;;;;;15.81;70.38;97111.22;4864122;29;20212;-83
2022/04/27 05:37:33;;;;;;;7.67;4.97;;;;;;;16.16;70.84;97118.44;4880435;29;20213;-83
2022/04/27 05:40:20;;;;;;;7.33;5.07;;;;;;;16.30;70.29;97115.72;4891660;29;20319;-85
2022/04/27 05:43:09;;;;;;;6.70;4.63;;;;;;;16.71;68.66;97112.13;4881335;29;20194;-84
2022/04/27 05:46:05;;;;;;;5.43;4.50;;;;;;;17.10;67.57;97118.00;4876354;29;20838;-83
2022/04/27 05:48:56;;;;;;;11.13;5.17;;;;;;;17.23;66.23;97098.84;4878104;29;20201;-84
2022/04/27 05:51:51;;;;;;;5.83;4.30;;;;;;;17.21;65.77;97072.75;4854442;29;20289;-84
2022/04/27 05:54:56;;;;;;;7.20;4.73;;;;;;;17.57;64.27;97091.09;4864904;29;20203;-84
2022/04/27 05:57:47;;;;;;;8.00;4.30;;;;;;;17.84;63.73;97131.00;4820172;29;20224;-84
2022/04/27 06:00:37;;;;;;;4.47;3.83;;;;;;;17.80;63.54;97133.94;4848843;29;20225;-85
2022/04/27 06:03:25;;;;;;;4.87;4.23;;;;;;;17.98;63.26;97137.00;4893461;29;20269;-85
2022/04/27 06:05:56;;;;;;;5.70;3.73;;;;;;;17.81;62.26;97115.50;4862426;29;20526;-95
2022/04/27 06:08:27;;;;;;;3.87;3.57;;;;;;;18.05;62.29;97135.59;4877249;29;20225;-84
2022/04/27 06:11:02;;;;;;;10.70;4.60;;;;;;;17.66;63.49;97134.94;4881246;29;20225;-86
2022/04/27 06:13:41;;;;;;;6.90;4.43;;;;;;;17.92;62.19;97126.97;4865341;29;20261;-84
2022/04/27 06:16:32;;;;;;;6.43;3.77;;;;;;;17.67;63.55;97127.91;4877515;29;20206;-84
2022/04/27 06:19:18;;;;;;;6.23;4.17;;;;;;;17.20;64.50;97107.75;4883434;29;20221;-85
2022/04/27 06:21:51;;;;;;;4.60;4.20;;;;;;;17.28;64.32;97128.97;4879421;29;20200;-84
2022/04/27 06:24:36;;;;;;;8.10;4.20;;;;;;;17.53;63.43;97092.28;4901436;29;20203;-85
2022/04/27 06:27:48;;;;;;;6.63;4.53;;;;;;;17.67;61.82;97092.09;4881781;29;20258;-86
2022/04/27 06:30:20;;;;;;;5.87;4.43;;;;;;;17.47;63.93;97125.88;4878576;29;20694;-90
2022/04/27 06:32:53;;;;;;;8.23;4.60;;;;;;;17.66;64.35;97145.41;4861915;29;20278;-88
2022/04/27 06:35:26;;;;;;;10.43;4.70;;;;;;;18.00;63.43;97137.72;4860722;29;20231;-88
2022/04/27 06:37:59;;;;;;;13.97;6.57;;;;;;;18.22;62.19;97122.06;4894308;29;20245;-85
2022/04/27 06:40:49;;;;;;;7.83;3.97;;;;;;;18.48;61.34;97147.22;4875576;29;20228;-86
2022/04/27 06:43:23;;;;;;;6.87;4.27;;;;;;;18.65;60.75;97131.00;4887871;29;20234;-84
2022/04/27 06:46:10;;;;;;;6.27;3.23;;;;;;;18.77;58.88;97143.22;4898691;29;20218;-85
2022/04/27 06:48:57;;;;;;;7.50;3.47;;;;;;;18.97;59.35;97146.91;4898542;29;20194;-85
2022/04/27 06:51:43;;;;;;;10.83;3.90;;;;;;;19.13;57.87;97135.09;4899409;29;20198;-85
2022/04/27 06:54:39;;;;;;;8.00;3.97;;;;;;;19.29;56.99;97161.81;4890069;29;20514;-84
2022/04/27 06:57:44;;;;;;;7.77;3.67;;;;;;;19.01;57.11;97124.72;4877422;29;20252;-84
2022/04/27 07:00:16;;;;;;;6.87;3.70;;;;;;;19.23;57.51;97130.78;4882463;29;20321;-84
2022/04/27 07:02:44;;;;;;;6.40;3.67;;;;;;;19.13;56.81;97156.09;4885052;29;20629;-83
2022/04/27 07:05:19;;;;;;;6.30;3.23;;;;;;;19.20;57.73;97175.69;4887830;29;20210;-84
2022/04/27 07:07:52;;;;;;;8.20;4.63;;;;;;;19.59;56.95;97178.78;4901119;29;20198;-82
2022/04/27 07:10:23;;;;;;;9.70;4.43;;;;;;;19.66;56.66;97179.97;4887401;29;20227;-84
2022/04/27 07:13:05;;;;;;;8.80;4.47;;;;;;;19.92;55.58;97171.66;4874194;29;20272;-84
2022/04/27 07:15:38;;;;;;;8.30;4.53;;;;;;;19.92;56.62;97169.03;4869292;29;20251;-85
2022/04/27 07:18:35;;;;;;;7.27;5.23;;;;;;;19.62;57.46;97179.38;4890860;29;20192;-84
2022/04/27 07:21:07;;;;;;;4.63;4.00;;;;;;;19.27;55.21;97176.88;4886902;29;20271;-84
2022/04/27 07:23:40;;;;;;;14.47;5.13;;;;;;;18.91;57.27;97161.34;4868236;29;20214;-85
2022/04/27 07:26:20;;;;;;;12.77;9.03;;;;;;;18.81;56.70;97186.63;4882431;29;20239;-85
2022/04/27 07:28:58;;;;;;;5.63;3.57;;;;;;;19.13;56.48;97155.25;4880000;29;20196;-86
2022/04/27 07:31:35;;;;;;;6.07;3.77;;;;;;;19.42;56.30;97173.06;4880879;29;20264;-86
2022/04/27 07:34:09;;;;;;;7.63;3.60;;;;;;;19.74;56.32;97183.63;4862761;29;20747;-85
2022/04/27 07:36:41;;;;;;;7.77;3.60;;;;;;;19.87;56.74;97165.94;4879164;29;20200;-86
2022/04/27 07:39:13;;;;;;;8.37;3.90;;;;;;;19.84;55.69;97139.06;4880277;29;20822;-85
2022/04/27 07:41:46;;;;;;;5.73;3.50;;;;;;;19.71;56.78;97110.31;4876974;29;20290;-86
2022/04/27 07:44:17;;;;;;;6.83;2.77;;;;;;;19.57;56.97;97171.03;4852003;29;20207;-84
2022/04/27 07:46:47;;;;;;;4.53;2.17;;;;;;;19.49;56.55;97161.09;4881302;29;20726;-86
2022/04/27 07:49:22;;;;;;;5.30;2.53;;;;;;;19.44;57.25;97155.41;4888525;29;20734;-84
2022/04/27 07:51:50;;;;;;;10.07;3.47;;;;;;;19.71;56.82;97147.09;4896307;29;20275;-85
2022/04/27 07:54:19;;;;;;;8.03;3.03;;;;;;;19.84;55.79;97128.56;4893354;29;20263;-87
2022/04/27 07:56:50;;;;;;;3.07;2.10;;;;;;;19.64;56.07;97116.19;4895505;29;20207;-83
2022/04/27 07:59:19;;;;;;;4.70;1.97;;;;;;;19.87;56.23;97151.94;4876149;29;20323;-85
2022/04/27 08:01:47;;;;;;;5.67;2.80;;;;;;;19.75;56.75;97095.13;4874903;29;20195;-85
2022/04/27 08:04:16;;;;;;;3.63;2.30;;;;;;;20.01;57.11;97180.59;4860101;29;20234;-86
2022/04/27 08:06:44;;;;;;;6.37;2.40;;;;;;;20.06;57.92;97167.91;4880396;29;20195;-90
2022/04/27 08:09:11;;;;;;;4.23;3.30;;;;;;;20.18;58.33;97153.75;4880680;29;20204;-90
2022/04/27 08:11:41;;;;;;;4.50;2.87;;;;;;;19.31;59.43;97154.66;4880335;29;20553;-85
2022/04/27 08:14:11;;;;;;;4.30;2.80;;;;;;;19.39;59.16;97173.31;4877044;29;20293;-86
2022/04/27 08:16:41;;;;;;;6.20;3.23;;;;;;;19.58;60.61;97161.38;4876854;29;21166;-87
2022/04/27 08:19:09;;;;;;;2.70;1.80;;;;;;;19.80;59.70;97163.94;4880636;29;20235;-85
2022/04/27 08:21:43;;;;;;;3.00;2.20;;;;;;;19.81;58.18;97132.25;4877707;29;20196;-83
2022/04/27 08:24:18;;;;;;;5.07;2.43;;;;;;;19.65;59.10;97144.13;4876742;29;20736;-84
2022/04/27 08:26:49;;;;;;;2.60;2.10;;;;;;;19.74;57.13;97081.13;4877219;29;20275;-84
2022/04/27 08:29:18;;;;;;;5.40;2.43;;;;;;;20.11;58.40;97127.13;4878655;29;20211;-89
2022/04/27 08:31:49;;;;;;;4.83;1.90;;;;;;;20.31;57.59;97140.47;4876508;29;20200;-85
2022/04/27 08:34:28;;;;;;;3.63;2.40;;;;;;;20.46;57.32;97136.56;4857372;29;20266;-86
2022/04/27 08:37:18;;;;;;;3.87;2.10;;;;;;;20.56;57.75;97161.97;4876575;29;20196;-87
2022/04/27 08:39:49;;;;;;;5.60;2.40;;;;;;;20.45;57.62;97162.03;4876545;29;20235;-88
2022/04/27 08:42:22;;;;;;;4.73;2.97;;;;;;;20.62;58.12;97158.81;4874579;29;20196;-87
2022/04/27 08:44:52;;;;;;;3.57;2.00;;;;;;;20.55;56.52;97151.56;4875184;29;20214;-85
2022/04/27 08:47:26;;;;;;;2.63;2.00;;;;;;;20.39;56.65;97123.06;4872963;29;20196;-85
2022/04/27 08:49:58;;;;;;;6.63;2.73;;;;;;;20.66;55.76;97141.81;4876729;29;20206;-84
2022/04/27 08:52:28;;;;;;;5.80;2.37;;;;;;;20.92;55.84;97127.25;4874699;29;20219;-84
2022/04/27 08:54:59;;;;;;;5.80;2.23;;;;;;;20.94;56.20;97145.56;4858579;29;20225;-85
2022/04/27 08:57:28;;;;;;;5.10;2.50;;;;;;;21.00;54.51;97143.22;4875736;29;20193;-84
2022/04/27 09:00:02;;;;;;;12.63;5.27;;;;;;;21.35;55.02;97139.41;4879301;29;20232;-88
2022/04/27 09:02:35;;;;;;;5.17;2.23;;;;;;;21.36;53.07;97139.25;4879357;29;20747;-84
2022/04/27 09:05:21;;;;;;;5.90;3.13;;;;;;;20.68;51.83;97100.41;4874771;29;20204;-85
2022/04/27 09:07:59;;;;;;;3.80;2.00;;;;;;;21.13;52.04;97134.31;4892028;29;20200;-84
2022/04/27 09:10:40;;;;;;;4.73;2.40;;;;;;;21.17;49.67;97140.97;4877767;29;20897;-86
2022/04/27 09:13:16;;;;;;;5.47;3.20;;;;;;;21.26;52.42;97135.75;4861869;29;20215;-85
2022/04/27 09:16:04;;;;;;;5.37;2.00;;;;;;;21.36;52.59;97135.78;4878371;29;20204;-86
2022/04/27 09:22:20;;;;;;;5.17;2.83;;;;;;;21.53;52.05;97149.16;4876607;29;20180;-84
2022/04/27 09:24:51;;;;;;;9.50;4.00;;;;;;;21.30;52.03;97141.59;4875285;29;20566;-85
2022/04/27 09:27:24;;;;;;;4.23;2.00;;;;;;;20.82;51.00;97100.06;4877049;29;20279;-83
2022/04/27 09:30:01;;;;;;;7.40;4.00;;;;;;;21.18;51.16;97138.22;4876672;29;20200;-84
2022/04/27 09:32:31;;;;;;;8.83;2.93;;;;;;;21.08;50.13;97120.72;4860926;29;20200;-85
2022/04/27 09:35:08;;;;;;;6.07;2.23;;;;;;;21.50;50.76;97138.03;4881160;29;20240;-84
2022/04/27 09:37:45;;;;;;;3.60;2.10;;;;;;;20.66;50.97;97057.59;4877799;29;20260;-86
2022/04/27 09:40:16;;;;;;;4.30;2.40;;;;;;;21.28;50.08;97125.09;4879857;29;20247;-87
2022/04/27 09:42:47;;;;;;;8.53;2.50;;;;;;;21.43;51.90;97137.75;4877198;29;20205;-89
2022/04/27 09:45:20;;;;;;;5.37;2.47;;;;;;;21.17;49.68;97138.34;4881350;29;20214;-89
2022/04/27 09:48:04;;;;;;;7.40;2.30;;;;;;;21.53;48.10;97137.78;4885154;29;20200;-94
2022/04/27 09:50:58;;;;;;;4.40;2.33;;;;;;;21.30;48.51;97134.53;4888119;29;20267;-86
2022/04/27 09:53:29;;;;;;;4.07;1.70;;;;;;;21.15;46.50;97135.84;4889287;29;20196;-88
2022/04/27 09:56:01;;;;;;;5.03;2.33;;;;;;;21.36;48.41;97106.81;4892331;29;20205;-90
2022/04/27 09:58:34;;;;;;;4.10;2.27;;;;;;;21.74;48.20;97122.72;4888024;29;20197;-84
2022/04/27 10:01:06;;;;;;;4.50;1.87;;;;;;;21.49;45.46;97115.31;4882892;29;20246;-86
2022/04/27 10:03:49;;;;;;;5.13;2.50;;;;;;;21.33;47.58;97099.19;4882337;29;20233;-84
2022/04/27 10:06:17;;;;;;;6.50;2.00;;;;;;;21.61;47.35;97095.75;4880038;29;20202;-89
2022/04/27 10:08:49;;;;;;;4.93;2.17;;;;;;;21.59;49.73;97084.53;4879177;29;20803;-88
2022/04/27 10:11:17;;;;;;;3.97;2.27;;;;;;;21.66;50.57;97112.00;4878775;29;20209;-84
2022/04/27 10:13:54;;;;;;;6.10;3.27;;;;;;;21.58;50.74;97115.31;4879117;29;20270;-89
2022/04/27 10:16:24;;;;;;;8.37;2.97;;;;;;;21.99;50.51;97118.75;4858174;29;20205;-85
2022/04/27 10:19:10;;;;;;;3.77;2.23;;;;;;;21.82;49.41;97117.63;4876461;29;20185;-83
2022/04/27 10:21:56;;;;;;;5.23;2.10;;;;;;;21.57;50.21;97121.56;4859607;29;20208;-84
2022/04/27 10:24:37;;;;;;;4.93;2.13;;;;;;;21.92;50.13;97112.34;4873943;29;20197;-85
2022/04/27 10:27:22;;;;;;;4.93;2.43;;;;;;;22.07;50.40;97100.41;4875502;29;20201;-86
2022/04/27 10:30:17;;;;;;;5.83;2.20;;;;;;;22.13;49.42;97116.53;4879833;29;20202;-85
2022/04/27 10:32:51;;;;;;;7.23;2.00;;;;;;;21.99;47.27;97097.66;4875242;29;20214;-84
2022/04/27 10:35:30;;;;;;;7.50;2.90;;;;;;;21.91;50.13;97090.41;4874813;29;20204;-85
2022/04/27 10:38:23;;;;;;;8.67;1.90;;;;;;;21.85;48.75;97102.34;4873452;29;20197;-84
2022/04/27 10:41:04;;;;;;;3.80;2.03;;;;;;;21.79;49.99;97073.03;4873795;29;20810;-85
2022/04/27 10:43:43;;;;;;;6.60;3.10;;;;;;;22.38;50.86;97105.38;4874515;29;20200;-85
2022/04/27 10:46:39;;;;;;;5.90;2.57;;;;;;;22.45;48.94;97106.47;4875260;29;20269;-87
2022/04/27 10:49:24;;;;;;;3.57;2.10;;;;;;;21.75;50.06;97100.63;4858879;29;20688;-85
2022/04/27 10:52:16;;;;;;;5.33;2.37;;;;;;;21.70;50.05;97084.41;4874036;29;20227;-85
2022/04/27 10:55:34;;;;;;;3.13;2.40;;;;;;;21.64;50.59;97092.84;4874547;29;20609;-86
2022/04/27 10:58:45;;;;;;;4.23;2.20;;;;;;;21.56;51.33;97090.06;4874393;29;20204;-85
2022/04/27 11:02:13;;;;;;;7.13;2.57;;;;;;;22.27;49.89;97102.06;4875836;29;20237;-85
2022/04/27 11:05:14;;;;;;;5.27;2.40;;;;;;;22.48;50.22;97090.34;4874392;29;20205;-87
2022/04/27 11:08:19;;;;;;;4.30;2.33;;;;;;;22.67;49.11;97088.69;4875132;29;20323;-84
2022/04/27 11:11:45;;;;;;;7.80;2.50;;;;;;;22.19;48.44;97086.94;4876235;29;20214;-85
2022/04/27 11:15:11;;;;;;;5.03;2.43;;;;;;;22.53;49.67;97071.44;4875274;29;20202;-86
2022/04/27 11:18:37;;;;;;;5.90;2.30;;;;;;;22.10;48.46;97095.69;4872846;29;20272;-84
2022/04/27 11:22:02;;;;;;;7.43;2.30;;;;;;;22.38;48.51;97072.91;4878441;29;20710;-90
2022/04/27 11:25:24;;;;;;;4.87;2.07;;;;;;;22.44;48.29;97072.31;4893474;29;20231;-85
2022/04/27 11:28:48;;;;;;;7.43;2.40;;;;;;;22.26;46.64;97074.84;4896767;29;20301;-86
2022/04/27 11:32:10;;;;;;;4.63;2.00;;;;;;;22.08;46.45;97071.25;4885017;29;20624;-87
2022/04/27 11:35:32;;;;;;;7.50;2.40;;;;;;;22.20;45.44;97043.75;4871575;29;20193;-85
2022/04/27 11:39:00;;;;;;;5.30;2.53;;;;;;;22.44;44.88;97067.03;4875269;29;20271;-95
2022/04/27 11:42:22;;;;;;;6.80;2.17;;;;;;;22.30;43.61;97049.00;4874974;29;20688;-87
2022/04/27 11:45:52;;;;;;;5.27;2.60;;;;;;;22.52;43.17;97038.13;4874178;29;20206;-84
2022/04/27 11:49:13;;;;;;;5.40;2.00;;;;;;;22.55;42.65;97027.25;4874788;29;20206;-85
2022/04/27 11:52:37;;;;;;;3.00;1.77;;;;;;;22.66;41.30;97048.25;4859154;29;20204;-85
2022/04/27 11:56:00;;;;;;;4.00;1.83;;;;;;;22.54;40.77;97052.84;4873281;29;20193;-85
2022/04/27 11:59:26;;;;;;;6.70;2.10;;;;;;;22.80;40.76;97050.41;4874290;29;20258;-85
2022/04/27 12:02:49;;;;;;;3.23;1.60;;;;;;;22.99;39.83;97050.34;4871191;29;20218;-84
2022/04/27 12:06:12;;;;;;;5.10;2.63;;;;;;;22.63;40.50;97030.88;4872263;29;20222;-85
2022/04/27 12:09:39;;;;;;;4.53;2.43;;;;;;;22.55;41.17;97016.69;4873558;29;20219;-83
2022/04/27 12:13:07;;;;;;;4.43;2.10;;;;;;;22.45;40.25;97040.50;4872936;29;20657;-84
2022/04/27 12:16:42;;;;;;;4.90;1.53;;;;;;;22.47;41.43;97014.78;4876862;29;20822;-89
2022/04/27 12:20:14;;;;;;;3.60;1.63;;;;;;;22.85;40.36;97018.28;4876021;29;20310;-86
2022/04/27 12:23:44;;;;;;;2.93;1.87;;;;;;;22.31;41.72;96977.63;4878223;29;20347;-87
2022/04/27 12:27:05;;;;;;;6.03;1.60;;;;;;;22.34;41.54;97011.63;4890393;29;20679;-85
2022/04/27 12:30:27;;;;;;;4.17;2.20;;;;;;;22.81;40.58;96999.28;4875848;29;20298;-85
2022/04/27 12:33:50;;;;;;;5.33;2.03;;;;;;;22.53;40.92;96993.09;4855445;29;20209;-85
2022/04/27 12:37:31;;;;;;;6.57;2.00;;;;;;;22.72;40.98;96991.38;4877273;29;20670;-91
2022/04/27 12:40:52;;;;;;;5.43;2.23;;;;;;;22.40;41.22;96981.22;4875052;29;20232;-84
2022/04/27 12:44:15;;;;;;;6.50;1.57;;;;;;;22.29;41.37;97005.13;4878321;29;20284;-89
2022/04/27 12:47:56;;;;;;;8.57;2.53;;;;;;;22.22;41.78;96988.19;4878218;29;20241;-85
2022/04/27 12:51:28;;;;;;;8.37;2.00;;;;;;;22.09;42.03;96985.84;4875704;29;20288;-89
2022/04/27 12:54:52;;;;;;;8.03;2.67;;;;;;;22.55;41.89;96980.59;4877326;29;20533;-87
2022/04/27 12:57:44;;;;;;;14.93;2.70;;;;;;;22.28;40.23;96984.97;4878105;29;20206;-85